sensor_id;sensor_type;location;lat;lon;timestamp;P1;durP1;ratioP1;P2;durP2;ratioP2
22080;SDS011;11207;59.512;18.050;2023-03-12T00:02:06;5.63;;;5.23;;
22080;SDS011;11207;59.512;18.050;2023-03-12T00:04:32;6.17;;;5.57;;
22080;SDS011;11207;59.512;18.050;2023-03-12T00:06:59;5.60;;;5.10;;
22080;SDS011;11207;59.512;18.050;2023-03-12T00:09:26;5.83;;;5.20;;
22080;SDS011;11207;59.512;18.050;2023-03-12T00:11:51;7.90;;;6.63;;
22080;SDS011;11207;59.512;18.050;2023-03-12T00:14:17;9.40;;;6.50;;
22080;SDS011;11207;59.512;18.050;2023-03-12T00:16:42;8.07;;;6.43;;
22080;SDS011;11207;59.512;18.050;2023-03-12T00:19:08;8.33;;;6.43;;
22080;SDS011;11207;59.512;18.050;2023-03-12T00:21:36;9.17;;;7.00;;
22080;SDS011;11207;59.512;18.050;2023-03-12T00:24:02;15.57;;;8.63;;
22080;SDS011;11207;59.512;18.050;2023-03-12T00:26:29;15.80;;;8.93;;
22080;SDS011;11207;59.512;18.050;2023-03-12T00:28:55;13.63;;;8.93;;
22080;SDS011;11207;59.512;18.050;2023-03-12T00:31:25;9.87;;;7.30;;
22080;SDS011;11207;59.512;18.050;2023-03-12T00:33:53;9.97;;;6.83;;
22080;SDS011;11207;59.512;18.050;2023-03-12T00:36:22;12.33;;;7.80;;
22080;SDS011;11207;59.512;18.050;2023-03-12T00:38:50;10.90;;;7.33;;
22080;SDS011;11207;59.512;18.050;2023-03-12T00:41:17;11.07;;;7.70;;
22080;SDS011;11207;59.512;18.050;2023-03-12T00:43:46;11.70;;;7.33;;
22080;SDS011;11207;59.512;18.050;2023-03-12T00:46:13;11.13;;;7.47;;
22080;SDS011;11207;59.512;18.050;2023-03-12T00:48:39;12.70;;;7.13;;
22080;SDS011;11207;59.512;18.050;2023-03-12T00:51:05;8.43;;;6.70;;
22080;SDS011;11207;59.512;18.050;2023-03-12T00:53:31;10.03;;;7.17;;
22080;SDS011;11207;59.512;18.050;2023-03-12T00:55:57;9.83;;;8.10;;
22080;SDS011;11207;59.512;18.050;2023-03-12T00:58:23;16.50;;;9.27;;
22080;SDS011;11207;59.512;18.050;2023-03-12T01:00:48;17.23;;;9.73;;
22080;SDS011;11207;59.512;18.050;2023-03-12T01:03:14;17.17;;;9.53;;
22080;SDS011;11207;59.512;18.050;2023-03-12T01:05:40;14.47;;;9.27;;
22080;SDS011;11207;59.512;18.050;2023-03-12T01:08:06;11.20;;;7.33;;
22080;SDS011;11207;59.512;18.050;2023-03-12T01:10:33;9.33;;;6.97;;
22080;SDS011;11207;59.512;18.050;2023-03-12T01:12:59;11.13;;;7.83;;
22080;SDS011;11207;59.512;18.050;2023-03-12T01:15:24;10.07;;;7.60;;
22080;SDS011;11207;59.512;18.050;2023-03-12T01:17:50;9.40;;;7.40;;
22080;SDS011;11207;59.512;18.050;2023-03-12T01:20:16;9.93;;;7.07;;
22080;SDS011;11207;59.512;18.050;2023-03-12T01:22:41;7.80;;;6.63;;
22080;SDS011;11207;59.512;18.050;2023-03-12T01:25:08;8.10;;;7.23;;
22080;SDS011;11207;59.512;18.050;2023-03-12T01:27:34;9.90;;;6.77;;
22080;SDS011;11207;59.512;18.050;2023-03-12T01:30:00;6.40;;;5.90;;
22080;SDS011;11207;59.512;18.050;2023-03-12T01:32:25;7.43;;;6.27;;
22080;SDS011;11207;59.512;18.050;2023-03-12T01:34:51;11.47;;;7.47;;
22080;SDS011;11207;59.512;18.050;2023-03-12T01:37:16;9.70;;;7.40;;
22080;SDS011;11207;59.512;18.050;2023-03-12T01:39:42;11.90;;;8.33;;
22080;SDS011;11207;59.512;18.050;2023-03-12T01:42:08;12.47;;;8.47;;
22080;SDS011;11207;59.512;18.050;2023-03-12T01:44:47;11.10;;;7.97;;
22080;SDS011;11207;59.512;18.050;2023-03-12T01:47:14;10.57;;;8.57;;
22080;SDS011;11207;59.512;18.050;2023-03-12T01:49:39;11.33;;;8.87;;
22080;SDS011;11207;59.512;18.050;2023-03-12T01:52:06;14.20;;;9.13;;
22080;SDS011;11207;59.512;18.050;2023-03-12T01:54:47;13.23;;;9.17;;
22080;SDS011;11207;59.512;18.050;2023-03-12T01:57:14;12.43;;;8.77;;
22080;SDS011;11207;59.512;18.050;2023-03-12T01:59:49;12.83;;;8.97;;
22080;SDS011;11207;59.512;18.050;2023-03-12T02:02:18;11.70;;;8.77;;
22080;SDS011;11207;59.512;18.050;2023-03-12T02:04:50;12.87;;;8.67;;
22080;SDS011;11207;59.512;18.050;2023-03-12T02:07:21;11.67;;;8.33;;
22080;SDS011;11207;59.512;18.050;2023-03-12T02:09:47;11.40;;;8.37;;
22080;SDS011;11207;59.512;18.050;2023-03-12T02:12:13;13.90;;;8.63;;
22080;SDS011;11207;59.512;18.050;2023-03-12T02:14:40;9.33;;;7.77;;
22080;SDS011;11207;59.512;18.050;2023-03-12T02:17:06;10.43;;;7.97;;
22080;SDS011;11207;59.512;18.050;2023-03-12T02:19:46;10.10;;;7.33;;
22080;SDS011;11207;59.512;18.050;2023-03-12T02:22:19;8.63;;;7.23;;
22080;SDS011;11207;59.512;18.050;2023-03-12T02:27:28;7.40;;;6.03;;
22080;SDS011;11207;59.512;18.050;2023-03-12T02:29:57;6.80;;;5.80;;
22080;SDS011;11207;59.512;18.050;2023-03-12T02:32:25;7.83;;;6.70;;
22080;SDS011;11207;59.512;18.050;2023-03-12T02:34:54;6.60;;;6.00;;
22080;SDS011;11207;59.512;18.050;2023-03-12T02:37:21;6.80;;;6.30;;
22080;SDS011;11207;59.512;18.050;2023-03-12T02:39:49;7.00;;;6.30;;
22080;SDS011;11207;59.512;18.050;2023-03-12T02:42:21;6.73;;;6.07;;
22080;SDS011;11207;59.512;18.050;2023-03-12T02:44:48;6.90;;;6.30;;
22080;SDS011;11207;59.512;18.050;2023-03-12T02:47:14;7.93;;;6.17;;
22080;SDS011;11207;59.512;18.050;2023-03-12T02:49:40;6.57;;;5.93;;
22080;SDS011;11207;59.512;18.050;2023-03-12T02:52:05;7.47;;;5.83;;
22080;SDS011;11207;59.512;18.050;2023-03-12T02:54:31;6.37;;;5.83;;
22080;SDS011;11207;59.512;18.050;2023-03-12T02:56:57;6.63;;;6.10;;
22080;SDS011;11207;59.512;18.050;2023-03-12T02:59:23;8.10;;;6.13;;
22080;SDS011;11207;59.512;18.050;2023-03-12T03:01:52;6.70;;;6.07;;
22080;SDS011;11207;59.512;18.050;2023-03-12T03:04:19;6.20;;;5.57;;
22080;SDS011;11207;59.512;18.050;2023-03-12T03:06:46;6.70;;;6.10;;
22080;SDS011;11207;59.512;18.050;2023-03-12T03:09:12;6.10;;;5.60;;
22080;SDS011;11207;59.512;18.050;2023-03-12T03:11:38;5.93;;;5.43;;
22080;SDS011;11207;59.512;18.050;2023-03-12T03:14:03;7.07;;;6.00;;
22080;SDS011;11207;59.512;18.050;2023-03-12T03:16:31;6.50;;;5.80;;
22080;SDS011;11207;59.512;18.050;2023-03-12T03:18:57;6.90;;;6.30;;
22080;SDS011;11207;59.512;18.050;2023-03-12T03:21:23;6.97;;;6.27;;
22080;SDS011;11207;59.512;18.050;2023-03-12T03:23:49;10.77;;;6.90;;
22080;SDS011;11207;59.512;18.050;2023-03-12T03:26:15;7.67;;;6.67;;
22080;SDS011;11207;59.512;18.050;2023-03-12T03:28:44;9.33;;;7.30;;
22080;SDS011;11207;59.512;18.050;2023-03-12T03:31:10;8.73;;;7.03;;
22080;SDS011;11207;59.512;18.050;2023-03-12T03:33:36;7.97;;;6.23;;
22080;SDS011;11207;59.512;18.050;2023-03-12T03:36:03;7.40;;;6.23;;
22080;SDS011;11207;59.512;18.050;2023-03-12T03:38:30;8.60;;;6.60;;
22080;SDS011;11207;59.512;18.050;2023-03-12T03:40:57;8.83;;;7.03;;
22080;SDS011;11207;59.512;18.050;2023-03-12T03:43:23;7.60;;;6.80;;
22080;SDS011;11207;59.512;18.050;2023-03-12T03:45:55;10.13;;;6.73;;
22080;SDS011;11207;59.512;18.050;2023-03-12T03:48:25;10.90;;;7.47;;
22080;SDS011;11207;59.512;18.050;2023-03-12T03:50:50;7.40;;;6.70;;
22080;SDS011;11207;59.512;18.050;2023-03-12T03:53:16;8.17;;;6.40;;
22080;SDS011;11207;59.512;18.050;2023-03-12T03:55:43;7.13;;;6.43;;
22080;SDS011;11207;59.512;18.050;2023-03-12T03:58:09;12.97;;;7.37;;
22080;SDS011;11207;59.512;18.050;2023-03-12T04:00:35;9.03;;;6.13;;
22080;SDS011;11207;59.512;18.050;2023-03-12T04:03:00;7.53;;;6.40;;
22080;SDS011;11207;59.512;18.050;2023-03-12T04:05:26;9.53;;;6.80;;
22080;SDS011;11207;59.512;18.050;2023-03-12T04:07:52;7.13;;;6.37;;
22080;SDS011;11207;59.512;18.050;2023-03-12T04:10:22;7.83;;;6.10;;
22080;SDS011;11207;59.512;18.050;2023-03-12T04:12:49;8.37;;;6.10;;
22080;SDS011;11207;59.512;18.050;2023-03-12T04:15:15;6.97;;;5.97;;
22080;SDS011;11207;59.512;18.050;2023-03-12T04:17:41;7.47;;;6.07;;
22080;SDS011;11207;59.512;18.050;2023-03-12T04:20:06;7.03;;;6.33;;
22080;SDS011;11207;59.512;18.050;2023-03-12T04:22:34;8.30;;;6.40;;
22080;SDS011;11207;59.512;18.050;2023-03-12T04:24:59;6.67;;;6.03;;
22080;SDS011;11207;59.512;18.050;2023-03-12T04:27:25;6.40;;;5.80;;
22080;SDS011;11207;59.512;18.050;2023-03-12T04:29:51;9.33;;;6.03;;
22080;SDS011;11207;59.512;18.050;2023-03-12T04:32:17;6.60;;;6.00;;
22080;SDS011;11207;59.512;18.050;2023-03-12T04:34:42;7.03;;;6.33;;
22080;SDS011;11207;59.512;18.050;2023-03-12T04:37:08;7.73;;;6.50;;
22080;SDS011;11207;59.512;18.050;2023-03-12T04:39:40;6.57;;;5.97;;
22080;SDS011;11207;59.512;18.050;2023-03-12T04:42:07;6.63;;;5.83;;
22080;SDS011;11207;59.512;18.050;2023-03-12T04:44:33;7.03;;;6.30;;
22080;SDS011;11207;59.512;18.050;2023-03-12T04:46:59;6.90;;;6.20;;
22080;SDS011;11207;59.512;18.050;2023-03-12T04:49:25;8.60;;;6.40;;
22080;SDS011;11207;59.512;18.050;2023-03-12T04:51:51;6.63;;;6.03;;
22080;SDS011;11207;59.512;18.050;2023-03-12T04:54:17;6.70;;;6.10;;
22080;SDS011;11207;59.512;18.050;2023-03-12T04:56:44;11.27;;;6.10;;
22080;SDS011;11207;59.512;18.050;2023-03-12T04:59:11;7.63;;;6.37;;
22080;SDS011;11207;59.512;18.050;2023-03-12T05:01:37;6.40;;;5.80;;
22080;SDS011;11207;59.512;18.050;2023-03-12T05:04:02;6.90;;;6.30;;
22080;SDS011;11207;59.512;18.050;2023-03-12T05:06:29;6.80;;;6.20;;
22080;SDS011;11207;59.512;18.050;2023-03-12T05:08:54;8.07;;;6.73;;
22080;SDS011;11207;59.512;18.050;2023-03-12T05:11:20;8.60;;;6.30;;
22080;SDS011;11207;59.512;18.050;2023-03-12T05:13:46;8.33;;;5.97;;
22080;SDS011;11207;59.512;18.050;2023-03-12T05:16:12;6.53;;;5.93;;
22080;SDS011;11207;59.512;18.050;2023-03-12T05:18:38;7.63;;;6.00;;
22080;SDS011;11207;59.512;18.050;2023-03-12T05:21:05;6.23;;;5.60;;
22080;SDS011;11207;59.512;18.050;2023-03-12T05:23:33;8.13;;;6.20;;
22080;SDS011;11207;59.512;18.050;2023-03-12T05:25:59;6.53;;;6.03;;
22080;SDS011;11207;59.512;18.050;2023-03-12T05:28:25;7.23;;;6.50;;
22080;SDS011;11207;59.512;18.050;2023-03-12T05:30:58;6.67;;;5.97;;
22080;SDS011;11207;59.512;18.050;2023-03-12T05:33:26;7.33;;;6.00;;
22080;SDS011;11207;59.512;18.050;2023-03-12T05:35:52;6.37;;;5.87;;
22080;SDS011;11207;59.512;18.050;2023-03-12T05:38:18;8.40;;;6.37;;
22080;SDS011;11207;59.512;18.050;2023-03-12T05:40:54;6.30;;;5.77;;
22080;SDS011;11207;59.512;18.050;2023-03-12T05:43:21;6.33;;;5.73;;
22080;SDS011;11207;59.512;18.050;2023-03-12T05:45:47;6.27;;;5.67;;
22080;SDS011;11207;59.512;18.050;2023-03-12T05:48:13;7.27;;;6.10;;
22080;SDS011;11207;59.512;18.050;2023-03-12T05:50:39;7.47;;;6.13;;
22080;SDS011;11207;59.512;18.050;2023-03-12T05:53:05;6.97;;;6.27;;
22080;SDS011;11207;59.512;18.050;2023-03-12T05:55:33;6.17;;;5.60;;
22080;SDS011;11207;59.512;18.050;2023-03-12T05:58:00;7.13;;;6.37;;
22080;SDS011;11207;59.512;18.050;2023-03-12T06:00:25;6.33;;;5.73;;
22080;SDS011;11207;59.512;18.050;2023-03-12T06:02:51;5.87;;;5.37;;
22080;SDS011;11207;59.512;18.050;2023-03-12T06:05:16;6.27;;;5.70;;
22080;SDS011;11207;59.512;18.050;2023-03-12T06:07:42;6.13;;;5.60;;
22080;SDS011;11207;59.512;18.050;2023-03-12T06:10:08;6.97;;;6.27;;
22080;SDS011;11207;59.512;18.050;2023-03-12T06:12:34;6.83;;;6.23;;
22080;SDS011;11207;59.512;18.050;2023-03-12T06:14:59;8.33;;;5.67;;
22080;SDS011;11207;59.512;18.050;2023-03-12T06:17:25;6.07;;;5.50;;
22080;SDS011;11207;59.512;18.050;2023-03-12T06:19:53;8.40;;;6.07;;
22080;SDS011;11207;59.512;18.050;2023-03-12T06:22:19;6.20;;;5.70;;
22080;SDS011;11207;59.512;18.050;2023-03-12T06:24:46;9.20;;;5.80;;
22080;SDS011;11207;59.512;18.050;2023-03-12T06:27:12;7.20;;;6.60;;
22080;SDS011;11207;59.512;18.050;2023-03-12T06:29:40;6.43;;;5.83;;
22080;SDS011;11207;59.512;18.050;2023-03-12T06:32:06;6.83;;;6.17;;
22080;SDS011;11207;59.512;18.050;2023-03-12T06:34:32;6.23;;;5.40;;
22080;SDS011;11207;59.512;18.050;2023-03-12T06:36:58;6.70;;;5.97;;
22080;SDS011;11207;59.512;18.050;2023-03-12T06:39:24;8.07;;;7.27;;
22080;SDS011;11207;59.512;18.050;2023-03-12T06:41:49;10.60;;;7.70;;
22080;SDS011;11207;59.512;18.050;2023-03-12T06:44:15;11.03;;;7.37;;
22080;SDS011;11207;59.512;18.050;2023-03-12T06:46:41;6.43;;;5.73;;
22080;SDS011;11207;59.512;18.050;2023-03-12T06:49:08;6.03;;;5.43;;
22080;SDS011;11207;59.512;18.050;2023-03-12T06:51:34;6.10;;;5.57;;
22080;SDS011;11207;59.512;18.050;2023-03-12T06:54:00;5.60;;;5.10;;
22080;SDS011;11207;59.512;18.050;2023-03-12T06:56:26;5.80;;;5.30;;
22080;SDS011;11207;59.512;18.050;2023-03-12T06:58:52;6.23;;;5.63;;
22080;SDS011;11207;59.512;18.050;2023-03-12T07:01:18;5.50;;;5.10;;
22080;SDS011;11207;59.512;18.050;2023-03-12T07:03:44;6.43;;;5.87;;
22080;SDS011;11207;59.512;18.050;2023-03-12T07:06:17;6.30;;;5.80;;
22080;SDS011;11207;59.512;18.050;2023-03-12T07:08:44;6.37;;;5.67;;
22080;SDS011;11207;59.512;18.050;2023-03-12T07:11:10;6.57;;;5.87;;
22080;SDS011;11207;59.512;18.050;2023-03-12T07:13:36;6.27;;;5.67;;
22080;SDS011;11207;59.512;18.050;2023-03-12T07:16:02;8.10;;;6.17;;
22080;SDS011;11207;59.512;18.050;2023-03-12T07:18:28;6.50;;;5.80;;
22080;SDS011;11207;59.512;18.050;2023-03-12T07:20:54;6.90;;;6.23;;
22080;SDS011;11207;59.512;18.050;2023-03-12T07:23:20;6.63;;;5.90;;
22080;SDS011;11207;59.512;18.050;2023-03-12T07:25:46;7.20;;;6.50;;
22080;SDS011;11207;59.512;18.050;2023-03-12T07:28:12;7.93;;;7.07;;
22080;SDS011;11207;59.512;18.050;2023-03-12T07:30:39;7.40;;;6.73;;
22080;SDS011;11207;59.512;18.050;2023-03-12T07:33:06;7.57;;;6.10;;
22080;SDS011;11207;59.512;18.050;2023-03-12T07:35:33;6.83;;;6.20;;
22080;SDS011;11207;59.512;18.050;2023-03-12T07:38:00;6.10;;;5.60;;
22080;SDS011;11207;59.512;18.050;2023-03-12T07:40:26;6.47;;;5.87;;
22080;SDS011;11207;59.512;18.050;2023-03-12T07:42:52;6.30;;;5.80;;
22080;SDS011;11207;59.512;18.050;2023-03-12T07:45:18;5.97;;;5.47;;
22080;SDS011;11207;59.512;18.050;2023-03-12T07:47:44;5.60;;;5.10;;
22080;SDS011;11207;59.512;18.050;2023-03-12T07:50:10;5.30;;;4.80;;
22080;SDS011;11207;59.512;18.050;2023-03-12T07:52:36;5.23;;;4.83;;
22080;SDS011;11207;59.512;18.050;2023-03-12T07:55:02;5.20;;;4.80;;
22080;SDS011;11207;59.512;18.050;2023-03-12T07:57:28;5.57;;;5.17;;
22080;SDS011;11207;59.512;18.050;2023-03-12T07:59:53;9.03;;;6.80;;
22080;SDS011;11207;59.512;18.050;2023-03-12T08:02:19;5.80;;;5.40;;
22080;SDS011;11207;59.512;18.050;2023-03-12T08:04:45;6.00;;;4.77;;
22080;SDS011;11207;59.512;18.050;2023-03-12T08:07:10;6.27;;;4.90;;
22080;SDS011;11207;59.512;18.050;2023-03-12T08:09:37;4.97;;;4.67;;
22080;SDS011;11207;59.512;18.050;2023-03-12T08:12:03;4.60;;;4.30;;
22080;SDS011;11207;59.512;18.050;2023-03-12T08:14:30;5.40;;;4.13;;
22080;SDS011;11207;59.512;18.050;2023-03-12T08:16:56;4.40;;;4.10;;
22080;SDS011;11207;59.512;18.050;2023-03-12T08:19:22;4.93;;;4.63;;
22080;SDS011;11207;59.512;18.050;2023-03-12T08:21:48;4.73;;;4.43;;
22080;SDS011;11207;59.512;18.050;2023-03-12T08:24:16;5.23;;;4.83;;
22080;SDS011;11207;59.512;18.050;2023-03-12T08:26:41;4.30;;;4.03;;
22080;SDS011;11207;59.512;18.050;2023-03-12T08:29:07;4.90;;;4.50;;
22080;SDS011;11207;59.512;18.050;2023-03-12T08:31:33;4.40;;;4.10;;
22080;SDS011;11207;59.512;18.050;2023-03-12T08:33:59;4.47;;;4.00;;
22080;SDS011;11207;59.512;18.050;2023-03-12T08:36:24;4.43;;;4.13;;
22080;SDS011;11207;59.512;18.050;2023-03-12T08:38:50;4.53;;;4.13;;
22080;SDS011;11207;59.512;18.050;2023-03-12T08:41:15;5.50;;;5.00;;
22080;SDS011;11207;59.512;18.050;2023-03-12T08:43:41;4.63;;;4.33;;
22080;SDS011;11207;59.512;18.050;2023-03-12T08:46:07;4.37;;;4.07;;
22080;SDS011;11207;59.512;18.050;2023-03-12T08:48:32;4.73;;;4.23;;
22080;SDS011;11207;59.512;18.050;2023-03-12T08:50:58;5.10;;;4.43;;
22080;SDS011;11207;59.512;18.050;2023-03-12T08:53:28;4.17;;;3.90;;
22080;SDS011;11207;59.512;18.050;2023-03-12T08:55:54;4.67;;;4.27;;
22080;SDS011;11207;59.512;18.050;2023-03-12T08:58:21;4.50;;;4.20;;
22080;SDS011;11207;59.512;18.050;2023-03-12T09:00:48;4.87;;;4.57;;
22080;SDS011;11207;59.512;18.050;2023-03-12T09:03:22;4.37;;;4.07;;
22080;SDS011;11207;59.512;18.050;2023-03-12T09:06:14;5.03;;;4.63;;
22080;SDS011;11207;59.512;18.050;2023-03-12T09:08:41;4.50;;;4.20;;
22080;SDS011;11207;59.512;18.050;2023-03-12T09:11:08;6.77;;;4.23;;
22080;SDS011;11207;59.512;18.050;2023-03-12T09:13:34;4.40;;;4.00;;
22080;SDS011;11207;59.512;18.050;2023-03-12T09:16:00;4.20;;;3.90;;
22080;SDS011;11207;59.512;18.050;2023-03-12T09:18:27;4.40;;;4.00;;
22080;SDS011;11207;59.512;18.050;2023-03-12T09:20:53;5.20;;;4.10;;
22080;SDS011;11207;59.512;18.050;2023-03-12T09:23:19;4.83;;;4.33;;
22080;SDS011;11207;59.512;18.050;2023-03-12T09:25:45;4.43;;;4.13;;
22080;SDS011;11207;59.512;18.050;2023-03-12T09:28:12;4.77;;;4.47;;
22080;SDS011;11207;59.512;18.050;2023-03-12T09:30:39;4.33;;;4.03;;
22080;SDS011;11207;59.512;18.050;2023-03-12T09:33:04;4.93;;;4.63;;
22080;SDS011;11207;59.512;18.050;2023-03-12T09:35:30;4.57;;;4.27;;
22080;SDS011;11207;59.512;18.050;2023-03-12T09:37:56;4.10;;;3.80;;
22080;SDS011;11207;59.512;18.050;2023-03-12T09:40:23;5.17;;;4.70;;
22080;SDS011;11207;59.512;18.050;2023-03-12T09:42:56;4.00;;;3.70;;
22080;SDS011;11207;59.512;18.050;2023-03-12T09:45:30;4.97;;;4.00;;
22080;SDS011;11207;59.512;18.050;2023-03-12T09:48:38;4.67;;;4.27;;
22080;SDS011;11207;59.512;18.050;2023-03-12T09:54:05;3.80;;;3.60;;
22080;SDS011;11207;59.512;18.050;2023-03-12T09:56:40;4.60;;;4.20;;
22080;SDS011;11207;59.512;18.050;2023-03-12T09:59:10;4.37;;;3.80;;
22080;SDS011;11207;59.512;18.050;2023-03-12T10:04:15;4.20;;;3.90;;
22080;SDS011;11207;59.512;18.050;2023-03-12T10:12:22;4.30;;;4.00;;
22080;SDS011;11207;59.512;18.050;2023-03-12T10:26:38;3.90;;;3.70;;
22080;SDS011;11207;59.512;18.050;2023-03-12T10:29:10;3.63;;;3.43;;
22080;SDS011;11207;59.512;18.050;2023-03-12T10:34:45;3.60;;;3.40;;
22080;SDS011;11207;59.512;18.050;2023-03-12T10:37:23;4.13;;;3.40;;
22080;SDS011;11207;59.512;18.050;2023-03-12T10:39:54;3.57;;;3.37;;
22080;SDS011;11207;59.512;18.050;2023-03-12T10:42:21;3.97;;;3.50;;
22080;SDS011;11207;59.512;18.050;2023-03-12T10:44:57;3.70;;;3.50;;
22080;SDS011;11207;59.512;18.050;2023-03-12T10:47:41;3.60;;;3.40;;
22080;SDS011;11207;59.512;18.050;2023-03-12T10:50:21;4.00;;;3.60;;
22080;SDS011;11207;59.512;18.050;2023-03-12T10:52:52;3.40;;;3.20;;
22080;SDS011;11207;59.512;18.050;2023-03-12T10:55:37;3.70;;;3.50;;
22080;SDS011;11207;59.512;18.050;2023-03-12T10:58:03;4.03;;;3.83;;
22080;SDS011;11207;59.512;18.050;2023-03-12T11:00:29;3.50;;;3.30;;
22080;SDS011;11207;59.512;18.050;2023-03-12T11:05:33;3.80;;;3.50;;
22080;SDS011;11207;59.512;18.050;2023-03-12T11:08:00;4.10;;;3.67;;
22080;SDS011;11207;59.512;18.050;2023-03-12T11:12:57;3.30;;;3.10;;
22080;SDS011;11207;59.512;18.050;2023-03-12T11:15:30;3.70;;;3.50;;
22080;SDS011;11207;59.512;18.050;2023-03-12T11:18:22;3.87;;;3.50;;
22080;SDS011;11207;59.512;18.050;2023-03-12T11:20:57;4.00;;;3.70;;
22080;SDS011;11207;59.512;18.050;2023-03-12T11:23:42;3.87;;;3.67;;
22080;SDS011;11207;59.512;18.050;2023-03-12T11:27:15;3.80;;;3.50;;
22080;SDS011;11207;59.512;18.050;2023-03-12T11:29:52;3.40;;;3.20;;
22080;SDS011;11207;59.512;18.050;2023-03-12T11:32:38;3.53;;;3.33;;
22080;SDS011;11207;59.512;18.050;2023-03-12T11:35:30;3.60;;;3.40;;
22080;SDS011;11207;59.512;18.050;2023-03-12T11:38:13;3.77;;;3.53;;
22080;SDS011;11207;59.512;18.050;2023-03-12T11:50:02;3.67;;;3.47;;
22080;SDS011;11207;59.512;18.050;2023-03-12T11:52:39;3.50;;;3.30;;
22080;SDS011;11207;59.512;18.050;2023-03-12T11:55:20;4.17;;;3.73;;
22080;SDS011;11207;59.512;18.050;2023-03-12T12:00:40;3.77;;;3.43;;
22080;SDS011;11207;59.512;18.050;2023-03-12T12:08:34;3.75;;;3.40;;
22080;SDS011;11207;59.512;18.050;2023-03-12T12:14:43;4.03;;;3.73;;
22080;SDS011;11207;59.512;18.050;2023-03-12T12:17:25;3.50;;;3.30;;
22080;SDS011;11207;59.512;18.050;2023-03-12T12:20:14;3.43;;;3.23;;
22080;SDS011;11207;59.512;18.050;2023-03-12T12:28:55;3.73;;;3.50;;
22080;SDS011;11207;59.512;18.050;2023-03-12T12:31:40;3.97;;;3.67;;
22080;SDS011;11207;59.512;18.050;2023-03-12T12:34:34;3.80;;;3.33;;
22080;SDS011;11207;59.512;18.050;2023-03-12T12:43:00;3.93;;;3.73;;
22080;SDS011;11207;59.512;18.050;2023-03-12T12:45:33;3.20;;;3.10;;
22080;SDS011;11207;59.512;18.050;2023-03-12T12:48:13;3.70;;;3.40;;
22080;SDS011;11207;59.512;18.050;2023-03-12T12:50:44;3.60;;;3.30;;
22080;SDS011;11207;59.512;18.050;2023-03-12T12:53:14;3.77;;;3.53;;
22080;SDS011;11207;59.512;18.050;2023-03-12T12:55:51;3.53;;;3.33;;
22080;SDS011;11207;59.512;18.050;2023-03-12T12:58:20;3.30;;;3.10;;
22080;SDS011;11207;59.512;18.050;2023-03-12T13:01:01;3.37;;;3.03;;
22080;SDS011;11207;59.512;18.050;2023-03-12T13:03:28;3.60;;;3.40;;
22080;SDS011;11207;59.512;18.050;2023-03-12T13:05:59;5.20;;;3.10;;
22080;SDS011;11207;59.512;18.050;2023-03-12T13:16:35;3.20;;;3.10;;
22080;SDS011;11207;59.512;18.050;2023-03-12T13:21:40;3.50;;;3.30;;
22080;SDS011;11207;59.512;18.050;2023-03-12T13:24:25;3.60;;;3.40;;
22080;SDS011;11207;59.512;18.050;2023-03-12T13:27:16;3.53;;;3.27;;
22080;SDS011;11207;59.512;18.050;2023-03-12T13:29:49;3.87;;;3.57;;
22080;SDS011;11207;59.512;18.050;2023-03-12T13:34:58;3.80;;;3.27;;
22080;SDS011;11207;59.512;18.050;2023-03-12T13:48:31;4.00;;;3.37;;
22080;SDS011;11207;59.512;18.050;2023-03-12T13:53:57;3.67;;;3.40;;
22080;SDS011;11207;59.512;18.050;2023-03-12T13:56:25;3.77;;;3.43;;
22080;SDS011;11207;59.512;18.050;2023-03-12T14:01:30;3.50;;;3.20;;
22080;SDS011;11207;59.512;18.050;2023-03-12T14:04:10;3.60;;;3.33;;
22080;SDS011;11207;59.512;18.050;2023-03-12T14:09:38;3.33;;;3.13;;
22080;SDS011;11207;59.512;18.050;2023-03-12T14:17:36;3.57;;;3.37;;
22080;SDS011;11207;59.512;18.050;2023-03-12T14:20:04;3.77;;;3.50;;
22080;SDS011;11207;59.512;18.050;2023-03-12T14:22:37;3.60;;;3.40;;
22080;SDS011;11207;59.512;18.050;2023-03-12T14:25:05;3.63;;;3.33;;
22080;SDS011;11207;59.512;18.050;2023-03-12T14:27:40;3.70;;;3.50;;
22080;SDS011;11207;59.512;18.050;2023-03-12T14:32:40;3.70;;;3.50;;
22080;SDS011;11207;59.512;18.050;2023-03-12T14:35:12;3.60;;;3.17;;
22080;SDS011;11207;59.512;18.050;2023-03-12T14:40:39;4.23;;;3.40;;
22080;SDS011;11207;59.512;18.050;2023-03-12T14:43:28;3.40;;;3.20;;
22080;SDS011;11207;59.512;18.050;2023-03-12T14:45:59;3.13;;;3.03;;
22080;SDS011;11207;59.512;18.050;2023-03-12T14:48:30;3.50;;;3.30;;
22080;SDS011;11207;59.512;18.050;2023-03-12T14:50:57;3.87;;;3.10;;
22080;SDS011;11207;59.512;18.050;2023-03-12T14:53:28;3.40;;;3.20;;
22080;SDS011;11207;59.512;18.050;2023-03-12T14:55:59;3.67;;;3.43;;
22080;SDS011;11207;59.512;18.050;2023-03-12T14:58:30;3.53;;;3.30;;
22080;SDS011;11207;59.512;18.050;2023-03-12T15:01:02;3.50;;;3.30;;
22080;SDS011;11207;59.512;18.050;2023-03-12T15:03:29;3.67;;;3.37;;
22080;SDS011;11207;59.512;18.050;2023-03-12T15:06:00;3.00;;;2.90;;
22080;SDS011;11207;59.512;18.050;2023-03-12T15:08:26;3.40;;;3.20;;
22080;SDS011;11207;59.512;18.050;2023-03-12T15:10:53;3.77;;;3.47;;
22080;SDS011;11207;59.512;18.050;2023-03-12T15:13:21;4.27;;;3.50;;
22080;SDS011;11207;59.512;18.050;2023-03-12T15:15:50;3.57;;;3.37;;
22080;SDS011;11207;59.512;18.050;2023-03-12T15:18:25;3.13;;;2.93;;
22080;SDS011;11207;59.512;18.050;2023-03-12T15:20:53;3.33;;;3.13;;
22080;SDS011;11207;59.512;18.050;2023-03-12T15:23:21;3.83;;;3.53;;
22080;SDS011;11207;59.512;18.050;2023-03-12T15:28:34;3.70;;;3.10;;
22080;SDS011;11207;59.512;18.050;2023-03-12T15:31:10;3.50;;;3.30;;
22080;SDS011;11207;59.512;18.050;2023-03-12T15:33:41;3.33;;;2.90;;
22080;SDS011;11207;59.512;18.050;2023-03-12T15:38:43;3.67;;;3.27;;
22080;SDS011;11207;59.512;18.050;2023-03-12T15:44:15;3.60;;;3.33;;
22080;SDS011;11207;59.512;18.050;2023-03-12T15:46:44;3.50;;;3.30;;
22080;SDS011;11207;59.512;18.050;2023-03-12T15:49:34;3.77;;;3.47;;
22080;SDS011;11207;59.512;18.050;2023-03-12T15:52:05;3.83;;;3.53;;
22080;SDS011;11207;59.512;18.050;2023-03-12T15:55:03;3.60;;;3.40;;
22080;SDS011;11207;59.512;18.050;2023-03-12T15:57:51;3.77;;;3.57;;
22080;SDS011;11207;59.512;18.050;2023-03-12T16:00:25;3.70;;;3.50;;
22080;SDS011;11207;59.512;18.050;2023-03-12T16:02:54;3.77;;;3.57;;
22080;SDS011;11207;59.512;18.050;2023-03-12T16:05:28;4.13;;;3.77;;
22080;SDS011;11207;59.512;18.050;2023-03-12T16:07:58;3.67;;;3.40;;
22080;SDS011;11207;59.512;18.050;2023-03-12T16:10:45;3.80;;;3.57;;
22080;SDS011;11207;59.512;18.050;2023-03-12T16:13:13;3.70;;;3.40;;
22080;SDS011;11207;59.512;18.050;2023-03-12T16:15:41;3.57;;;3.37;;
22080;SDS011;11207;59.512;18.050;2023-03-12T16:18:16;26.43;;;15.37;;
22080;SDS011;11207;59.512;18.050;2023-03-12T16:20:43;28.07;;;18.00;;
22080;SDS011;11207;59.512;18.050;2023-03-12T16:23:10;12.30;;;7.70;;
22080;SDS011;11207;59.512;18.050;2023-03-12T16:25:37;6.37;;;5.70;;
22080;SDS011;11207;59.512;18.050;2023-03-12T16:28:05;6.90;;;6.05;;
22080;SDS011;11207;59.512;18.050;2023-03-12T16:30:32;4.50;;;4.23;;
22080;SDS011;11207;59.512;18.050;2023-03-12T16:33:01;6.37;;;4.40;;
22080;SDS011;11207;59.512;18.050;2023-03-12T16:35:28;6.40;;;5.90;;
22080;SDS011;11207;59.512;18.050;2023-03-12T16:37:56;6.00;;;5.40;;
22080;SDS011;11207;59.512;18.050;2023-03-12T16:40:25;6.47;;;5.97;;
22080;SDS011;11207;59.512;18.050;2023-03-12T16:42:52;5.43;;;4.93;;
22080;SDS011;11207;59.512;18.050;2023-03-12T16:45:19;17.13;;;5.50;;